O Brien, Texas
Current Conditions -  °F | °C
As of 3:58 PM on Monday 24 Nov 2014 (Local Time) from KDYS Reporting Station
Clear Clear  
Wind Chill: 58°   Ceiling: Unl
Heat Index: 58°   Visibility: 10mi
Dew Point: 25°   Wind: 9mph
Humidity: 28%   Direction: 190°S
Pressure: 30.03"   Gusts: NA
Location:  33.3819°N, 99.8437°W
Report Text: KDYS 242158Z AUTO 19008KT 10SM CLR 14/M04 A3003 RMK AO2 SLP161 T01441041 $
Loading
Personal Weather Stations






























Interactive Weather Map New forecast layout! Learn more

10-Day Weather Forecast

Advertisements
Track Severe Weather on mobile